createdAt,value
2022-12-03T00:00:33.461Z,84.40
2022-12-03T00:03:00.672Z,84.67
2022-12-03T00:05:27.960Z,84.71
2022-12-03T00:07:55.109Z,84.64
2022-12-03T00:10:22.262Z,84.70
2022-12-03T00:12:49.251Z,84.79
2022-12-03T00:15:16.313Z,84.69
2022-12-03T00:17:43.295Z,84.79
2022-12-03T00:20:17.663Z,84.96
2022-12-03T00:22:44.746Z,84.78
2022-12-03T00:25:11.876Z,85.17
2022-12-03T00:27:39.047Z,85.23
2022-12-03T00:30:07.234Z,85.12
2022-12-03T00:32:34.318Z,84.96
2022-12-03T00:35:01.325Z,84.97
2022-12-03T00:37:28.273Z,84.86
2022-12-03T00:39:55.330Z,85.05
2022-12-03T00:42:22.263Z,85.45
2022-12-03T00:44:49.353Z,85.18
2022-12-03T00:47:16.435Z,85.29
2022-12-03T00:49:43.459Z,85.64
2022-12-03T00:52:10.406Z,85.65
2022-12-03T00:54:37.350Z,85.40
2022-12-03T00:57:04.334Z,85.44
2022-12-03T00:59:31.516Z,85.42
2022-12-03T01:01:58.663Z,85.65
2022-12-03T01:04:26.790Z,85.75
2022-12-03T01:06:53.856Z,85.46
2022-12-03T01:09:20.806Z,85.93
2022-12-03T01:11:47.850Z,85.73
2022-12-03T01:14:17.463Z,85.79
2022-12-03T01:16:44.961Z,85.75
2022-12-03T01:19:16.620Z,85.85
2022-12-03T01:21:50.281Z,85.64
2022-12-03T01:24:19.761Z,85.97
2022-12-03T01:26:47.090Z,85.98
2022-12-03T01:29:15.053Z,86.09
2022-12-03T01:32:00.582Z,86.03
2022-12-03T01:34:27.633Z,86.20
2022-12-03T01:36:54.840Z,86.22
2022-12-03T01:39:21.929Z,86.06
2022-12-03T01:41:50.832Z,86.05
2022-12-03T01:44:24.758Z,86.41
2022-12-03T01:46:53.715Z,86.36
2022-12-03T01:49:25.481Z,86.23
2022-12-03T01:51:53.688Z,86.29
2022-12-03T01:54:26.379Z,86.18
2022-12-03T01:56:54.534Z,86.69
2022-12-03T01:59:33.904Z,86.70
2022-12-03T02:02:11.884Z,86.65
2022-12-03T02:04:39.298Z,86.50
2022-12-03T02:07:26.175Z,86.40
2022-12-03T02:09:55.508Z,86.85
2022-12-03T02:12:31.000Z,86.62
2022-12-03T02:14:58.541Z,86.63
2022-12-03T02:17:26.753Z,86.87
2022-12-03T02:19:55.462Z,86.73
2022-12-03T02:22:41.051Z,86.49
2022-12-03T02:25:12.042Z,86.97
2022-12-03T02:27:39.553Z,86.39
2022-12-03T02:30:08.079Z,86.85
2022-12-03T02:32:35.373Z,86.84
2022-12-03T02:35:02.484Z,86.64
2022-12-03T02:37:38.682Z,87.07
2022-12-03T02:40:10.837Z,87.29
2022-12-03T02:42:37.962Z,86.96
2022-12-03T02:45:21.188Z,87.41
2022-12-03T02:47:54.064Z,87.37
2022-12-03T02:50:26.727Z,87.29
2022-12-03T02:52:56.504Z,87.06
2022-12-03T02:55:24.810Z,86.94
2022-12-03T02:57:52.402Z,86.92
2022-12-03T03:00:20.722Z,87.06
2022-12-03T03:02:47.977Z,86.78
2022-12-03T03:05:16.202Z,87.18
2022-12-03T03:07:43.713Z,86.95
2022-12-03T03:10:14.814Z,87.03
2022-12-03T03:12:41.856Z,87.23
2022-12-03T03:15:10.635Z,87.07
2022-12-03T03:17:38.559Z,87.27
2022-12-03T03:20:06.931Z,87.29
2022-12-03T03:22:39.654Z,87.26
2022-12-03T03:25:09.881Z,87.17
2022-12-03T03:27:38.108Z,87.19
2022-12-03T03:30:06.163Z,87.16
2022-12-03T03:32:34.034Z,87.47
2022-12-03T03:35:01.450Z,86.88
2022-12-03T03:37:29.339Z,87.30
2022-12-03T03:39:56.614Z,87.43
2022-12-03T03:42:24.489Z,87.50
2022-12-03T03:44:51.989Z,87.46
2022-12-03T03:47:20.384Z,87.44
2022-12-03T03:49:49.825Z,87.34
2022-12-03T03:52:18.775Z,87.49
2022-12-03T03:54:46.473Z,87.38
2022-12-03T03:57:13.635Z,87.40
2022-12-03T03:59:41.286Z,87.19
2022-12-03T04:02:20.207Z,87.32
2022-12-03T04:04:48.236Z,87.08
2022-12-03T04:07:16.717Z,87.07
2022-12-03T04:09:44.325Z,87.13
2022-12-03T04:12:32.947Z,86.94
2022-12-03T04:14:59.920Z,87.08
2022-12-03T04:17:27.296Z,86.94
2022-12-03T04:19:54.580Z,86.80
2022-12-03T04:22:40.206Z,86.77
2022-12-03T04:25:29.998Z,86.63
2022-12-03T04:28:15.793Z,86.88
2022-12-03T04:30:42.891Z,86.66
2022-12-03T04:33:28.298Z,86.80
2022-12-03T04:35:55.297Z,86.53
2022-12-03T04:38:22.711Z,86.58
2022-12-03T04:41:01.764Z,86.81
2022-12-03T04:43:29.337Z,86.44
2022-12-03T04:45:56.544Z,86.73
2022-12-03T04:48:24.201Z,86.81
2022-12-03T04:50:51.727Z,86.68
2022-12-03T04:53:19.161Z,86.69
2022-12-03T04:55:46.206Z,86.54
2022-12-03T04:58:13.375Z,86.90
2022-12-03T05:00:40.592Z,86.42
2022-12-03T05:03:07.781Z,86.61
2022-12-03T05:05:34.766Z,86.93
2022-12-03T05:08:02.063Z,86.81
2022-12-03T05:10:29.195Z,86.91
2022-12-03T05:12:56.204Z,86.92
2022-12-03T05:15:23.317Z,86.92
2022-12-03T05:17:50.401Z,87.13
2022-12-03T05:20:35.834Z,87.00
2022-12-03T05:23:02.977Z,86.72
2022-12-03T05:25:30.142Z,87.06
2022-12-03T05:27:57.122Z,86.77
2022-12-03T05:30:24.560Z,87.14
2022-12-03T05:32:51.728Z,86.96
2022-12-03T05:35:18.682Z,87.33
2022-12-03T05:37:45.850Z,87.17
2022-12-03T05:40:13.638Z,86.93
2022-12-03T05:42:57.132Z,87.03
2022-12-03T05:45:32.931Z,87.09
2022-12-03T05:48:01.211Z,87.17
2022-12-03T05:50:31.256Z,86.67
2022-12-03T05:52:59.026Z,86.93
2022-12-03T05:55:27.509Z,86.90
2022-12-03T05:57:55.124Z,86.68
2022-12-03T06:00:23.912Z,86.94
2022-12-03T06:02:51.402Z,86.62
2022-12-03T06:05:22.298Z,86.52
2022-12-03T06:07:50.961Z,86.85
2022-12-03T06:10:23.524Z,86.66
2022-12-03T06:12:50.864Z,86.42
2022-12-03T06:15:18.887Z,86.38
2022-12-03T06:17:46.445Z,86.47
2022-12-03T06:20:16.546Z,86.38
2022-12-03T06:22:43.664Z,86.78
2022-12-03T06:25:11.519Z,86.76
2022-12-03T06:27:38.883Z,86.76
2022-12-03T06:30:08.760Z,86.47
2022-12-03T06:32:36.164Z,86.38
2022-12-03T06:35:03.705Z,86.23
2022-12-03T06:37:30.862Z,86.14
2022-12-03T06:39:58.008Z,86.29
2022-12-03T06:42:25.303Z,86.21
2022-12-03T06:44:52.877Z,86.49
2022-12-03T06:47:20.235Z,86.50
2022-12-03T06:49:47.282Z,86.21
2022-12-03T06:52:14.316Z,86.08
2022-12-03T06:54:41.408Z,86.05
2022-12-03T06:57:08.760Z,86.15
2022-12-03T06:59:37.762Z,86.56
2022-12-03T07:02:05.406Z,86.54
2022-12-03T07:04:32.477Z,86.40
2022-12-03T07:06:59.721Z,86.29
2022-12-03T07:09:26.985Z,86.19
2022-12-03T07:11:53.875Z,86.20
2022-12-03T07:14:21.218Z,86.19
2022-12-03T07:16:48.426Z,86.30
2022-12-03T07:19:33.492Z,86.42
2022-12-03T07:22:00.849Z,85.72
2022-12-03T07:24:28.100Z,85.80
2022-12-03T07:26:55.284Z,85.85
2022-12-03T07:29:22.555Z,85.72
2022-12-03T07:31:50.219Z,85.57
2022-12-03T07:34:17.669Z,85.70
2022-12-03T07:36:45.024Z,85.59
2022-12-03T07:39:12.238Z,85.78
2022-12-03T07:41:39.273Z,85.66
2022-12-03T07:44:12.404Z,86.12
2022-12-03T07:46:41.765Z,86.09
2022-12-03T07:49:09.180Z,86.03
2022-12-03T07:51:36.283Z,85.90
2022-12-03T07:54:03.548Z,85.94
2022-12-03T07:56:30.624Z,86.44
2022-12-03T07:58:57.916Z,86.35
2022-12-03T08:01:25.272Z,86.18
2022-12-03T08:03:52.495Z,86.42
2022-12-03T08:06:19.674Z,86.23
2022-12-03T08:08:46.747Z,86.15
2022-12-03T08:11:15.266Z,86.66
2022-12-03T08:13:42.797Z,86.37
2022-12-03T08:16:17.281Z,86.29
2022-12-03T08:18:45.391Z,86.40
2022-12-03T08:21:14.976Z,86.73
2022-12-03T08:23:42.230Z,86.61
2022-12-03T08:26:28.215Z,86.64
2022-12-03T08:28:55.609Z,86.86
2022-12-03T08:31:32.965Z,86.83
2022-12-03T08:34:40.757Z,86.56
2022-12-03T08:37:18.386Z,86.57
2022-12-03T08:39:50.741Z,86.48
2022-12-03T08:42:44.393Z,86.43
2022-12-03T08:45:29.803Z,86.94
2022-12-03T08:47:58.540Z,86.57
2022-12-03T08:50:36.357Z,86.73
2022-12-03T08:53:31.515Z,86.62
2022-12-03T08:56:14.196Z,86.34
2022-12-03T08:58:44.282Z,86.62
2022-12-03T09:01:11.657Z,86.54
2022-12-03T09:03:46.675Z,86.63
2022-12-03T09:06:13.821Z,86.67
2022-12-03T09:08:40.881Z,86.70
2022-12-03T09:11:08.073Z,86.30
2022-12-03T09:13:35.159Z,86.00
2022-12-03T09:16:02.420Z,86.18
2022-12-03T09:18:29.579Z,86.50
2022-12-03T09:20:57.383Z,86.10
2022-12-03T09:23:24.639Z,86.01
2022-12-03T09:25:51.800Z,86.27
2022-12-03T09:28:18.972Z,86.24
2022-12-03T09:30:46.031Z,86.39
2022-12-03T09:33:14.291Z,86.44
2022-12-03T09:35:41.627Z,86.10
2022-12-03T09:38:08.752Z,85.94
2022-12-03T09:40:35.912Z,85.93
2022-12-03T09:43:03.498Z,85.76
2022-12-03T09:45:30.469Z,85.82
2022-12-03T09:47:57.672Z,86.09
2022-12-03T09:50:27.332Z,85.83
2022-12-03T09:52:57.344Z,85.86
2022-12-03T09:55:28.203Z,85.48
2022-12-03T09:57:56.826Z,84.73
2022-12-03T10:00:28.172Z,84.04
2022-12-03T10:02:58.848Z,84.05
2022-12-03T10:05:26.077Z,84.07
2022-12-03T10:07:53.661Z,83.52
2022-12-03T10:10:22.686Z,84.03
2022-12-03T10:12:51.749Z,83.60
2022-12-03T10:15:22.802Z,84.23
2022-12-03T10:17:52.139Z,84.37
2022-12-03T10:20:21.706Z,84.20
2022-12-03T10:22:49.188Z,84.18
2022-12-03T10:25:19.555Z,84.47
2022-12-03T10:27:57.234Z,84.67
2022-12-03T10:30:27.183Z,85.21
2022-12-03T10:32:56.290Z,85.33
2022-12-03T10:35:38.136Z,85.12
2022-12-03T10:38:22.645Z,85.15
2022-12-03T10:40:50.710Z,85.36
2022-12-03T10:43:23.915Z,84.85
2022-12-03T10:46:12.816Z,84.99
2022-12-03T10:48:39.891Z,85.48
2022-12-03T10:51:23.291Z,84.82
2022-12-03T10:53:51.713Z,84.96
2022-12-03T10:56:25.467Z,84.87
2022-12-03T10:58:53.378Z,84.31
2022-12-03T11:01:23.204Z,84.47
2022-12-03T11:03:51.321Z,84.88
2022-12-03T11:06:21.798Z,84.46
2022-12-03T11:08:57.537Z,84.70
2022-12-03T11:11:31.718Z,84.39
2022-12-03T11:14:00.861Z,84.13
2022-12-03T11:16:39.814Z,84.85
2022-12-03T11:19:12.804Z,84.66
2022-12-03T11:22:36.689Z,84.63
2022-12-03T11:25:25.433Z,84.83
2022-12-03T11:28:10.851Z,84.90
2022-12-03T11:30:53.817Z,84.03
2022-12-03T11:33:35.901Z,84.00
2022-12-03T11:36:05.897Z,84.57
2022-12-03T11:38:43.269Z,84.08
2022-12-03T11:41:34.105Z,84.26
2022-12-03T11:44:05.101Z,84.60
2022-12-03T11:46:38.227Z,84.27
2022-12-03T11:49:33.681Z,83.61
2022-12-03T11:52:03.191Z,83.88
2022-12-03T11:54:35.822Z,83.81
2022-12-03T11:57:03.439Z,83.53
2022-12-03T11:59:30.468Z,83.23
2022-12-03T12:01:57.538Z,83.40
2022-12-03T12:04:38.248Z,83.25
2022-12-03T12:07:05.465Z,83.25
2022-12-03T12:09:53.405Z,83.39
2022-12-03T12:12:21.653Z,83.03
2022-12-03T12:14:48.594Z,83.26
2022-12-03T12:17:41.967Z,83.16
2022-12-03T12:20:25.027Z,82.90
2022-12-03T12:22:53.874Z,82.97
2022-12-03T12:25:30.154Z,83.24
2022-12-03T12:27:57.807Z,83.43
2022-12-03T12:30:24.960Z,83.35
2022-12-03T12:33:09.113Z,83.24
2022-12-03T12:35:37.225Z,83.60
2022-12-03T12:38:07.090Z,83.37
2022-12-03T12:40:40.432Z,83.47
2022-12-03T12:43:26.743Z,83.19
2022-12-03T12:46:18.551Z,83.74
2022-12-03T12:48:48.985Z,83.48
2022-12-03T12:51:20.815Z,83.86
2022-12-03T12:53:49.271Z,83.75
2022-12-03T12:56:31.216Z,83.95
2022-12-03T12:59:24.702Z,83.79
2022-12-03T13:01:51.953Z,83.73
2022-12-03T13:04:24.302Z,83.49
2022-12-03T13:06:54.405Z,83.40
2022-12-03T13:09:24.479Z,83.79
2022-12-03T13:11:57.982Z,83.82
2022-12-03T13:14:30.586Z,83.57
2022-12-03T13:17:01.134Z,83.70
2022-12-03T13:19:43.568Z,83.57
2022-12-03T13:22:21.505Z,84.01
2022-12-03T13:24:52.898Z,83.61
2022-12-03T13:27:19.939Z,83.64
2022-12-03T13:29:51.145Z,84.14
2022-12-03T13:32:27.344Z,84.17
2022-12-03T13:35:04.850Z,84.16
2022-12-03T13:37:32.130Z,84.47
2022-12-03T13:40:09.632Z,84.72
2022-12-03T13:42:39.827Z,84.74
2022-12-03T13:45:41.629Z,84.80
2022-12-03T13:48:25.512Z,84.61
2022-12-03T13:50:53.727Z,84.85
2022-12-03T13:53:40.966Z,85.04
2022-12-03T13:56:28.816Z,85.02
2022-12-03T13:59:00.856Z,85.46
2022-12-03T14:01:28.735Z,85.35
2022-12-03T14:03:56.398Z,85.42
2022-12-03T14:06:23.440Z,85.45
2022-12-03T14:08:50.662Z,85.48
2022-12-03T14:11:38.326Z,85.55
2022-12-03T14:14:05.680Z,86.14
2022-12-03T14:16:33.146Z,86.09
2022-12-03T14:19:00.546Z,86.30
2022-12-03T14:21:27.801Z,86.25
2022-12-03T14:23:55.202Z,86.14
2022-12-03T14:26:22.617Z,85.87
2022-12-03T14:28:49.970Z,86.16
2022-12-03T14:31:17.807Z,86.15
2022-12-03T14:33:44.848Z,85.86
2022-12-03T14:36:12.128Z,86.25
2022-12-03T14:38:39.364Z,86.03
2022-12-03T14:41:26.906Z,85.88
2022-12-03T14:43:54.202Z,85.86
2022-12-03T14:46:21.655Z,86.07
2022-12-03T14:48:49.272Z,85.62
2022-12-03T14:51:17.023Z,85.49
2022-12-03T14:53:44.350Z,85.87
2022-12-03T14:56:11.692Z,85.49
2022-12-03T14:58:39.509Z,85.35
2022-12-03T15:01:06.725Z,84.88
2022-12-03T15:03:33.950Z,84.98
2022-12-03T15:06:01.673Z,84.84
2022-12-03T15:08:29.374Z,85.04
2022-12-03T15:10:56.941Z,85.13
2022-12-03T15:13:24.291Z,84.87
2022-12-03T15:15:51.647Z,85.11
2022-12-03T15:18:19.161Z,84.87
2022-12-03T15:20:46.420Z,85.25
2022-12-03T15:23:14.689Z,85.15
2022-12-03T15:25:42.198Z,84.94
2022-12-03T15:28:09.702Z,85.23
2022-12-03T15:30:37.189Z,84.95
2022-12-03T15:33:05.082Z,84.75
2022-12-03T15:35:32.216Z,85.17
2022-12-03T15:38:00.442Z,84.58
2022-12-03T15:40:27.643Z,84.72
2022-12-03T15:42:55.328Z,84.97
2022-12-03T15:45:22.583Z,84.97
2022-12-03T15:47:49.862Z,84.95
2022-12-03T15:50:17.676Z,85.17
2022-12-03T15:52:45.022Z,85.52
2022-12-03T15:55:12.341Z,85.06
2022-12-03T15:57:39.439Z,85.11
2022-12-03T16:00:10.831Z,85.19
2022-12-03T16:02:38.270Z,85.58
2022-12-03T16:05:08.165Z,85.02
2022-12-03T16:07:35.328Z,85.30
2022-12-03T16:10:03.120Z,85.63
2022-12-03T16:12:30.518Z,85.55
2022-12-03T16:14:57.785Z,85.51
2022-12-03T16:17:24.914Z,85.16
2022-12-03T16:19:52.562Z,85.56
2022-12-03T16:22:20.079Z,85.40
2022-12-03T16:24:47.081Z,85.63
2022-12-03T16:27:14.136Z,85.42
2022-12-03T16:29:41.325Z,86.02
2022-12-03T16:32:08.547Z,85.85
2022-12-03T16:34:35.840Z,86.08
2022-12-03T16:37:05.314Z,85.66
2022-12-03T16:39:33.315Z,85.96
2022-12-03T16:42:00.555Z,86.03
2022-12-03T16:44:32.839Z,85.83
2022-12-03T16:47:01.818Z,85.57
2022-12-03T16:49:29.123Z,85.49
2022-12-03T16:51:56.349Z,86.24
2022-12-03T16:54:23.791Z,85.86
2022-12-03T16:56:50.902Z,85.79
2022-12-03T16:59:18.142Z,85.49
2022-12-03T17:01:45.266Z,85.65
2022-12-03T17:04:12.654Z,85.43
2022-12-03T17:06:39.953Z,86.09
2022-12-03T17:09:07.289Z,85.96
2022-12-03T17:11:34.492Z,85.84
2022-12-03T17:14:01.508Z,85.64
2022-12-03T17:16:29.147Z,85.81
2022-12-03T17:18:56.612Z,86.15
2022-12-03T17:21:23.746Z,86.12
2022-12-03T17:23:51.423Z,86.21
2022-12-03T17:26:19.424Z,86.16
2022-12-03T17:28:46.718Z,86.17
2022-12-03T17:31:14.195Z,85.85
2022-12-03T17:33:41.456Z,86.37
2022-12-03T17:36:09.007Z,86.26
2022-12-03T17:38:39.258Z,86.29
2022-12-03T17:41:07.855Z,86.00
2022-12-03T17:43:35.422Z,86.28
2022-12-03T17:46:02.805Z,86.05
2022-12-03T17:48:31.583Z,86.20
2022-12-03T17:50:58.870Z,86.43
2022-12-03T17:53:26.008Z,86.31
2022-12-03T17:55:53.056Z,86.56
2022-12-03T17:58:20.517Z,85.98
2022-12-03T18:00:47.886Z,86.15
2022-12-03T18:03:15.143Z,86.20
2022-12-03T18:05:42.329Z,86.33
2022-12-03T18:08:09.580Z,86.14
2022-12-03T18:10:37.157Z,86.15
2022-12-03T18:13:04.727Z,86.34
2022-12-03T18:15:32.809Z,86.60
2022-12-03T18:18:00.422Z,86.18
2022-12-03T18:20:27.645Z,86.39
2022-12-03T18:22:54.981Z,86.36
2022-12-03T18:25:22.393Z,86.15
2022-12-03T18:27:49.906Z,86.43
2022-12-03T18:30:17.147Z,86.20
2022-12-03T18:32:44.445Z,86.16
2022-12-03T18:35:11.668Z,86.73
2022-12-03T18:37:38.909Z,86.40
2022-12-03T18:40:12.893Z,86.30
2022-12-03T18:42:40.472Z,85.89
2022-12-03T18:45:11.158Z,86.20
2022-12-03T18:47:38.453Z,86.15
2022-12-03T18:50:07.202Z,85.68
2022-12-03T18:52:34.497Z,85.60
2022-12-03T18:55:01.932Z,86.14
2022-12-03T18:57:29.248Z,86.17
2022-12-03T18:59:56.840Z,86.05
2022-12-03T19:03:01.730Z,85.97
2022-12-03T19:05:11.938Z,85.60
2022-12-03T19:07:39.229Z,85.74
2022-12-03T19:10:07.701Z,85.61
2022-12-03T19:12:35.085Z,85.68
2022-12-03T19:15:03.364Z,85.88
2022-12-03T19:17:30.549Z,85.91
2022-12-03T19:19:58.007Z,85.74
2022-12-03T19:22:25.436Z,86.37
2022-12-03T19:24:52.691Z,85.88
2022-12-03T19:27:19.831Z,86.23
2022-12-03T19:29:50.264Z,85.72
2022-12-03T19:32:17.772Z,85.75
2022-12-03T19:34:45.073Z,85.78
2022-12-03T19:37:12.221Z,85.36
2022-12-03T19:39:39.591Z,85.29
2022-12-03T19:42:06.776Z,85.50
2022-12-03T19:44:33.878Z,84.82
2022-12-03T19:47:01.127Z,85.18
2022-12-03T19:49:28.424Z,85.15
2022-12-03T19:51:55.512Z,84.71
2022-12-03T19:54:22.526Z,84.90
2022-12-03T19:56:49.558Z,84.55
2022-12-03T19:59:16.570Z,84.97
2022-12-03T20:01:43.886Z,84.95
2022-12-03T20:04:12.122Z,84.59
2022-12-03T20:06:39.515Z,84.72
2022-12-03T20:09:13.304Z,85.40
2022-12-03T20:11:42.085Z,85.36
2022-12-03T20:14:13.192Z,84.79
2022-12-03T20:16:40.176Z,85.16
2022-12-03T20:19:08.347Z,84.54
2022-12-03T20:21:37.297Z,84.70
2022-12-03T20:24:05.276Z,84.87
2022-12-03T20:26:32.468Z,84.80
2022-12-03T20:29:00.279Z,84.71
2022-12-03T20:31:30.754Z,85.05
2022-12-03T20:34:01.625Z,84.95
2022-12-03T20:36:30.262Z,85.31
2022-12-03T20:39:00.894Z,84.81
2022-12-03T20:41:29.262Z,84.68
2022-12-03T20:43:56.382Z,85.12
2022-12-03T20:46:29.531Z,85.08
2022-12-03T20:48:57.688Z,85.39
2022-12-03T20:51:28.588Z,84.92
2022-12-03T20:53:56.340Z,85.18
2022-12-03T20:56:26.631Z,84.47
2022-12-03T20:58:54.270Z,84.74
2022-12-03T21:01:24.936Z,84.82
2022-12-03T21:03:53.758Z,84.76
2022-12-03T21:06:22.229Z,84.88
2022-12-03T21:08:49.866Z,84.80
2022-12-03T21:11:19.449Z,84.89
2022-12-03T21:13:47.021Z,84.54
2022-12-03T21:16:26.159Z,84.68
2022-12-03T21:19:07.365Z,84.70
2022-12-03T21:21:35.784Z,84.85
2022-12-03T21:24:02.783Z,84.69
2022-12-03T21:26:29.887Z,84.54
2022-12-03T21:28:57.090Z,84.70
2022-12-03T21:31:26.782Z,84.78
2022-12-03T21:33:55.334Z,85.09
2022-12-03T21:36:23.262Z,85.19
2022-12-03T21:38:50.707Z,84.79
2022-12-03T21:41:18.358Z,85.38
2022-12-03T21:43:46.021Z,84.82
2022-12-03T21:47:09.509Z,85.21
2022-12-03T21:49:02.491Z,85.29
2022-12-03T21:51:29.884Z,85.29
2022-12-03T21:53:57.164Z,85.35
2022-12-03T21:56:24.308Z,85.17
2022-12-03T21:58:51.487Z,85.19
2022-12-03T22:01:22.045Z,85.18
2022-12-03T22:03:50.405Z,85.40
2022-12-03T22:06:18.598Z,84.87
2022-12-03T22:08:46.293Z,85.57
2022-12-03T22:11:22.363Z,84.95
2022-12-03T22:13:49.614Z,84.92
2022-12-03T22:16:21.048Z,85.11
2022-12-03T22:18:48.569Z,85.27
2022-12-03T22:21:18.323Z,85.38
2022-12-03T22:23:45.427Z,85.02
2022-12-03T22:26:15.281Z,84.88
2022-12-03T22:28:47.345Z,85.55
2022-12-03T22:31:15.892Z,85.52
2022-12-03T22:33:44.010Z,85.32
2022-12-03T22:36:19.583Z,85.56
2022-12-03T22:38:48.243Z,85.30
2022-12-03T22:41:16.358Z,85.15
2022-12-03T22:43:45.042Z,85.36
2022-12-03T22:46:13.093Z,85.28
2022-12-03T22:48:42.779Z,85.74
2022-12-03T22:51:19.394Z,85.72
2022-12-03T22:53:46.836Z,85.46
2022-12-03T22:56:13.895Z,85.37
2022-12-03T22:58:41.440Z,85.80
2022-12-03T23:01:09.293Z,85.38
2022-12-03T23:03:37.526Z,85.23
2022-12-03T23:06:12.306Z,85.19
2022-12-03T23:08:39.671Z,85.14
2022-12-03T23:11:07.294Z,85.34
2022-12-03T23:13:34.633Z,85.60
2022-12-03T23:16:01.838Z,85.34
2022-12-03T23:18:29.028Z,85.19
2022-12-03T23:20:57.459Z,85.62
2022-12-03T23:23:27.994Z,85.45
2022-12-03T23:26:12.909Z,85.92
2022-12-03T23:28:41.646Z,85.31
2022-12-03T23:31:19.332Z,85.81
2022-12-03T23:33:46.851Z,85.39
2022-12-03T23:36:13.951Z,85.27
2022-12-03T23:38:41.508Z,85.71
2022-12-03T23:41:11.634Z,85.86
2022-12-03T23:43:39.587Z,85.32
2022-12-03T23:46:15.282Z,85.47
2022-12-03T23:48:42.752Z,86.27
2022-12-03T23:51:16.100Z,85.92
2022-12-03T23:53:44.014Z,86.04
2022-12-03T23:56:23.404Z,85.63
2022-12-03T23:58:51.043Z,85.47
